Tiempo atmosférico en la estación meteorológica de Pollença, Illes Balears (45 m.)



Fecha
DESCASC
Temp. máxima en grados centígrados (hora)
DESCASC
Temp. mínima en grados centígrados (hora)
DESCASC
Temp. media en grados centígrados
DESCASC
Racha de viento máxima en m/sg (hora)
DESCASC
Velocidad máxima media en intervalos de 10 minutos(hora)
DESCASC
Precipitaciones diarias en mm
DESCASC
Precipitaciones de 00:00 a 06:00 en mm
DESCASC
Precipitaciones de 06:00 a 12:00 en mm
DESCASC
Precipitaciones de 12:00 a 18:00 en mm
DESCASC
Precipitaciones de 18:00 a 24:00 en mm
DESCASC
22-01-2020 17.1 (15:00) 8.7 (06:00) 12.9 8.61 (18:10) 3.33 (19:00) 1.8 0 0.2 0 1.6
21-01-2020 15.3 (12:40) 11 (17:10) 13.2 15.56 (15:30) 5.83 (13:00) 24.6 0.2 0 24.2 0.2
20-01-2020 13.7 (23:40) 9.7 (01:20) 11.7 16.11 (05:00) 6.39 (05:00) 48.2 36.6 5.6 4.6 1.4
19-01-2020 12.2 (10:00) 7.5 (00:00) 9.8 16.67 (16:10) 5.83 (23:30) 50.2 0 18 17.2 15
18-01-2020 17.4 (14:50) 4.4 (00:00) 10.9 4.72 (12:40) 3.33 (16:20) 0 0 0 0 0
17-01-2020 19.4 (13:40) 4 (00:00) 11.7 12.78 (20:00) 5.28 (20:40) 0 0 0 0 0
16-01-2020 18.3 (14:20) 3.2 (00:00) 10.7 4.17 (15:10) 2.22 (14:50) 0 0 0 0 0
15-01-2020 16.7 (13:30) 5.1 (00:00) 10.9 7.22 (00:20) 3.33 (00:10) 0 0 0 0 0
14-01-2020 16.6 (14:30) 2.6 (00:00) 9.6 10.56 (14:10) 5.83 (12:40) 0 0 0 0 0
13-01-2020 16.1 (14:30) 1 (00:00) 8.6 5.83 (17:50) 3.06 (17:00) 0 0 0 0 0
12-01-2020 14.6 (14:20) 3.9 (00:00) 9.3 6.39 (12:20) 3.33 (12:20) 0 0 0 0 0
11-01-2020 13.4 (11:00) 9.8 (00:00) 11.6 10.56 (11:10) 4.17 (13:40) 0 0 0 0 0
10-01-2020 14.8 (10:50) 4.6 (00:00) 9.7 12.78 (19:40) 3.89 (15:20) 1.4 0 0 1.4 0
09-01-2020 16.6 (13:40) 5.4 (00:00) 11 3.89 (14:20) 1.94 (14:20) 0 0 0 0 0
08-01-2020 15.4 (14:30) 7.4 (00:00) 11.4 7.5 (10:20) 3.61 (11:30) 0 0 0 0 0
07-01-2020 16.2 (11:20) 6.8 (00:00) 11.5 6.11 (15:30) 3.33 (15:30) 0 0 0 0 0
06-01-2020 13.9 (14:40) 6.3 (00:00) 10.1 5.83 (02:40) 2.78 (02:40) 0 0 0 0 0
05-01-2020 18.6 (14:40) 5.3 (00:00) 12 6.67 (08:50) 3.33 (08:20) 0 0 0 0 0
04-01-2020 16.6 (13:40) 7.5 (00:00) 12.1 9.72 (22:10) 5 (22:10) 0 0 0 0 0
03-01-2020 17.4 (13:00) 7 (00:00) 12.2 4.44 (13:00) 2.5 (13:00) 0 0 0 0 0
02-01-2020 16.4 (13:00) 5 (00:00) 10.7 4.72 (13:10) 2.5 (14:00) 0 0 0 0 0
01-01-2020 15.2 (15:20) 5.1 (00:00) 10.1 3.33 (00:20) 1.67 (00:20) 0 0 0 0 0
31-12-2019 16.2 (12:00) 6.8 (00:00) 11.5 3.06 (14:10) 1.39 (14:10) 0 0 0 0 0
30-12-2019 16.9 (13:30) 6.8 (00:00) 11.8 -- (--) -- (--) 0 0 0 0 0
29-12-2019 15.2 (13:20) 7.5 (00:00) 11.3 4.17 (13:20) 2.22 (14:20) 0 0 0 0 0
28-12-2019 16.2 (14:30) 7.4 (00:00) 11.8 4.72 (14:50) 2.22 (13:20) 0 0 0 0 0
27-12-2019 17.6 (13:00) 7.4 (00:00) 12.5 8.89 (12:20) 4.44 (13:20) 0 0 0 0 0

Gráficas

Temp. máximas Temp. mínimas Temp. medias Precipitaciones Rachas de viento máximas Velocidades máximas media en intervalos de 10 minutos

Datos horarios

Fecha y hora oficial Temperatura (ºC) Velocidad del viento (km/h) Dirección del viento Racha (km/h) Dirección de racha Precipitación (mm) Presión (hPa) Tendencia (hPa) Humedad (%)
2020-01-25 23:00:00 11.1 0 Calma 14 Sur 0 -- -- 93
2020-01-25 22:00:00 13.4 6 Sur 18 Oeste 0 -- -- 89
2020-01-25 21:00:00 12 2 Sudeste 5 Sur 0 -- -- 93
2020-01-25 20:00:00 13.7 4 Este 15 Este 0 -- -- 86
2020-01-25 19:00:00 13.9 3 Este 15 Sudeste 0.2 -- -- 84
2020-01-25 18:00:00 12.9 2 Este 8 Nordeste 0 -- -- 88
2020-01-25 17:00:00 14.9 3 Norte 10 Sudeste 0 -- -- 83
2020-01-25 16:00:00 15.5 5 Sudeste 9 Nordeste 0 -- -- 80
2020-01-25 15:00:00 16.7 3 Este 11 Sudeste 0 -- -- 72
2020-01-25 14:00:00 16.4 5 Sur 13 Sur 0 -- -- 72
2020-01-25 13:00:00 16.6 2 Noroeste 13 Sudeste 0 -- -- 69
2020-01-25 12:00:00 15.5 3 Noroeste 15 Oeste 0 -- -- 76
2020-01-25 11:00:00 14.8 7 Oeste 20 Sudoeste 0 -- -- 77
2020-01-25 10:00:00 13.7 6 Nordeste 13 Este 0 -- -- 80
2020-01-25 09:00:00 10.5 2 Nordeste 7 Noroeste 0 -- -- 96
2020-01-25 08:00:00 10.1 3 Sudoeste 13 Oeste 0 -- -- 95
2020-01-25 07:00:00 9.7 4 Sur 9 Noroeste 0 -- -- 98
2020-01-25 06:00:00 9.4 3 Sudeste 6 Este 0 -- -- 98
2020-01-25 05:00:00 9.8 4 Sur 9 Este 0 -- -- 99
2020-01-25 04:00:00 9.6 2 Sudeste 8 Este 0 -- -- 99
2020-01-25 03:00:00 9.2 0 Calma 8 Oeste 0 -- -- 99
2020-01-25 02:00:00 7.9 0 Calma 3 Sudeste 0 -- -- 100
2020-01-25 01:00:00 7.4 0 Calma 2 Nordeste 0 -- -- 99
2020-01-25 00:00:00 6.9 0 Calma 3 Norte 0 -- -- 99
2020-01-24 23:00:00 7.4 0 Calma 3 Nordeste 0 -- -- 99
2020-01-24 22:00:00 7.7 0 Calma 4 Noroeste 0 -- -- 98
2020-01-24 21:00:00 8.4 0 Calma 5 Nordeste 0 -- -- 97
2020-01-24 20:00:00 9.2 0 Calma 4 Sudoeste 0 -- -- 96
2020-01-24 19:00:00 9.9 0 Calma 3 Oeste 0 -- -- 93
2020-01-24 18:00:00 11.8 0 Calma 6 Norte 0.2 -- -- 86
2020-01-24 17:00:00 14.1 2 Sudoeste 9 Nordeste 0 -- -- 72
2020-01-24 16:00:00 15.6 5 Este 14 Sudeste 0 -- -- 63
2020-01-24 15:00:00 17.3 6 Este 12 Nordeste 0 -- -- 56
2020-01-24 14:00:00 17.5 6 Nordeste 14 Sur 0 -- -- 46
2020-01-24 13:00:00 17.1 2 Norte 12 Noroeste 0 -- -- 50
2020-01-24 12:00:00 16.1 4 Norte 13 Oeste 0 -- -- 60
2020-01-24 11:00:00 14.7 3 Este 6 Nordeste 0 -- -- 80
2020-01-24 10:00:00 12.1 0 Calma 3 Norte 0 -- -- 98
2020-01-24 09:00:00 8.5 0 Calma 3 Noroeste 0 -- -- 100
2020-01-24 08:00:00 8.1 0 Calma 3 Noroeste 0 -- -- 100
2020-01-24 07:00:00 8.2 0 Calma 4 Norte 0 -- -- 100
2020-01-24 06:00:00 8 2 Noroeste 4 Oeste 0 -- -- 100
2020-01-24 05:00:00 8.1 0 Calma 4 Noroeste 0 -- -- 100
2020-01-24 04:00:00 8.3 2 Norte 3 Norte 0 -- -- 100
2020-01-24 03:00:00 8.3 0 Calma 5 Oeste 0 -- -- 99
2020-01-24 02:00:00 8.3 2 Noroeste 6 Oeste 0 -- -- 99
2020-01-24 01:00:00 8.5 2 Noroeste 5 Noroeste 0 -- -- 99
2020-01-24 00:00:00 8.2 2 Oeste 5 Oeste 0 -- -- 99
2020-01-23 23:00:00 8.5 2 Noroeste 5 Noroeste 0 -- -- 98
2020-01-23 22:00:00 8.7 2 Noroeste 4 Norte 0 -- -- 99
2020-01-23 21:00:00 8.8 2 Norte 7 Oeste 0 -- -- 98
2020-01-23 20:00:00 9.6 4 Oeste 9 Sudoeste 0 -- -- 98
2020-01-23 19:00:00 9.9 0 Calma 3 Nordeste 0 -- -- 94
2020-01-23 18:00:00 12.1 0 Calma 4 Sudeste 0 -- -- 88
2020-01-23 17:00:00 14.2 3 Sudeste 9 Este 0 -- -- 78
2020-01-23 16:00:00 16 4 Este 12 Este 0 -- -- 66
2020-01-23 15:00:00 16.9 6 Este 14 Nordeste 0 -- -- 63
2020-01-23 14:00:00 17.3 5 Este 9 Este 0 -- -- 64
2020-01-23 13:00:00 17.1 0 Calma 9 Sur 0 -- -- 63
2020-01-23 12:00:00 16.2 3 Sur 9 Sudeste 0 -- -- 69
2020-01-23 11:00:00 14.9 0 Calma 5 Sur 0 -- -- 80
2020-01-23 10:00:00 12.6 0 Calma 4 Oeste 0 -- -- 95
2020-01-23 09:00:00 9.6 0 Calma 5 Norte 0.2 -- -- 99
2020-01-23 08:00:00 8.4 0 Calma 5 Norte 0 -- -- 99
2020-01-23 07:00:00 8.2 0 Calma 5 Oeste 0 -- -- 98
2020-01-23 06:00:00 8.9 0 Calma 6 Este 0 -- -- 97
2020-01-23 05:00:00 10.1 2 Sudoeste 5 Sudoeste 0 -- -- 96
2020-01-23 04:00:00 11.8 2 Noroeste 20 Sudeste 0 -- -- 92
2020-01-23 03:00:00 12.9 7 Este 21 Sudeste 0 -- -- 96
2020-01-23 02:00:00 12.9 3 Nordeste 14 Este 0 -- -- 95
2020-01-23 01:00:00 13.5 6 Oeste 14 Sudoeste 0.6 -- -- 97
2020-01-23 00:00:00 13.3 0 Calma 4 Nordeste 1.6 -- -- 96
2020-01-22 23:00:00 13.4 0 Calma 4 Norte 0 -- -- 93
2020-01-22 22:00:00 13.8 4 Norte 14 Este 0 -- -- 90
2020-01-22 21:00:00 14.9 6 Sudeste 26 Sudeste 0 -- -- 83
2020-01-22 20:00:00 14.6 10 Sudeste 23 Sudeste 0 -- -- 84
2020-01-22 19:00:00 14.6 12 Sudeste 31 Sur 0 -- -- 86
2020-01-22 18:00:00 14.5 6 Sudeste 23 Sudeste 0 -- -- 88
2020-01-22 17:00:00 15.8 5 Sudeste 24 Sudeste 0 -- -- 82
2020-01-22 16:00:00 16.9 10 Sur 19 Sur 0 -- -- 77
2020-01-22 15:00:00 17.1 4 Sudeste 17 Nordeste 0 -- -- 77
2020-01-22 14:00:00 16.3 6 Sudeste 19 Sudeste 0 -- -- 82
2020-01-22 13:00:00 16 6 Sudeste 13 Sudeste 0 -- -- 85
2020-01-22 12:00:00 14.8 0 Calma 4 Nordeste 0 -- -- 98
2020-01-22 11:00:00 13.5 0 Calma 8 Oeste 0 -- -- 99
2020-01-22 10:00:00 12 2 Oeste 6 Oeste 0.2 -- -- 100
2020-01-22 09:00:00 10.5 0 Calma 3 Norte 0 -- -- 100
2020-01-22 08:00:00 10 0 Calma 4 Noroeste 0 -- -- 100
2020-01-22 07:00:00 9.5 0 Calma 4 Norte 0 -- -- 100
2020-01-22 06:00:00 8.7 0 Calma 3 Oeste 0 -- -- 100
2020-01-22 05:00:00 8.9 0 Calma 4 Noroeste 0 -- -- 100
2020-01-22 04:00:00 9.2 2 Noroeste 4 Noroeste 0 -- -- 100
2020-01-22 03:00:00 9.5 2 Norte 4 Noroeste 0 -- -- 99
2020-01-22 02:00:00 9.8 2 Noroeste 3 Noroeste 0 -- -- 100
2020-01-22 01:00:00 10.3 0 Calma 4 Norte 0 -- -- 99
2020-01-22 00:00:00 11.6 0 Calma 5 Sudeste 0 -- -- 98
2020-01-21 23:00:00 12.2 2 Este 6 Sur 0 -- -- 97
2020-01-21 22:00:00 12.4 0 Calma 18 Sudeste 0 -- -- 95
2020-01-21 21:00:00 13.6 6 Sudeste 29 Sudeste 0 -- -- 91
2020-01-21 20:00:00 13.9 8 Sudeste 22 Sur 0 -- -- 90
2020-01-21 19:00:00 13.5 6 Sudeste 29 Sur 0.2 -- -- 92
2020-01-21 18:00:00 13 12 Sur 36 Sudeste 3 -- -- 95
2020-01-21 17:00:00 11.3 8 Sudeste 36 Sudeste 17 -- -- 95
2020-01-21 16:00:00 11.7 14 Este 56 Sudeste 4 -- -- 89
2020-01-21 15:00:00 14.8 17 Este 54 Este 0 -- -- 83
2020-01-21 14:00:00 14.5 15 Este 46 Este 0.2 -- -- 85
2020-01-21 13:00:00 15.1 21 Este 56 Este 0 -- -- 80
2020-01-21 12:00:00 15.1 13 Este 44 Este 0 -- -- 81
2020-01-21 11:00:00 15.1 15 Este 41 Este 0 -- -- 81
2020-01-21 10:00:00 14.8 16 Este 50 Este 0 -- -- 83
2020-01-21 09:00:00 15 13 Este 45 Este 0 -- -- 80
2020-01-21 08:00:00 14.8 12 Este 40 Sudeste 0 -- -- 83
2020-01-21 07:00:00 14.6 13 Este 41 Sudeste 0 -- -- 84
2020-01-21 06:00:00 14.8 16 Este 44 Este 0 -- -- 81
2020-01-21 05:00:00 14.8 14 Este 44 Este 0 -- -- 80
2020-01-21 04:00:00 14.6 12 Este 44 Este 0 -- -- 84
2020-01-21 03:00:00 14.6 13 Este 53 Este 0 -- -- 84
2020-01-21 02:00:00 14.8 15 Este 47 Nordeste 0 -- -- 84
2020-01-21 01:00:00 14.6 14 Este 39 Sudeste 0.2 -- -- 87
2020-01-21 00:00:00 13.6 7 Este 27 Este 0 -- -- 92
2020-01-20 23:00:00 13.4 11 Nordeste 27 Nordeste 0.4 -- -- 94
2020-01-20 22:00:00 13.1 9 Este 36 Sudeste 0.2 -- -- 93
2020-01-20 21:00:00 12.4 8 Nordeste 24 Este 0.8 -- -- 98
2020-01-20 20:00:00 10.7 2 Nordeste 13 Este 0 -- -- 99
2020-01-20 19:00:00 10.5 0 Calma 4 Norte 0 -- -- 98
2020-01-20 18:00:00 11 0 Calma 6 Norte 0.2 -- -- 97
2020-01-20 17:00:00 11.2 0 Calma 17 Este 3.2 -- -- 94
2020-01-20 16:00:00 13.1 6 Este 24 Nordeste 0.2 -- -- 91
2020-01-20 15:00:00 12.7 8 Este 46 Este 0 -- -- 87
2020-01-20 14:00:00 12.6 21 Este 42 Este 0 -- -- 87
2020-01-20 13:00:00 12.3 15 Este 48 Sudeste 1 -- -- 89
2020-01-20 12:00:00 11.9 16 Este 40 Este 0.8 -- -- 93
2020-01-20 11:00:00 11.6 12 Este 48 Este 0.4 -- -- 89
2020-01-20 10:00:00 11.2 18 Este 45 Este 1.2 -- -- 88
2020-01-20 09:00:00 11.4 17 Este 50 Nordeste 0.6 -- -- 86
2020-01-20 08:00:00 11.3 17 Nordeste 42 Nordeste 0.4 -- -- 86
2020-01-20 07:00:00 10.5 12 Este 47 Nordeste 2.2 -- -- 89
2020-01-20 06:00:00 10.4 16 Este 50 Este 4.6 -- -- 89
2020-01-20 05:00:00 10.8 23 Este 58 Nordeste 3.8 -- -- 88
2020-01-20 04:00:00 10.4 16 Este 42 Este 5.6 -- -- 94
2020-01-20 03:00:00 10.3 14 Este 41 Este 5.6 -- -- 93
2020-01-20 02:00:00 10.1 16 Este 47 Este 9.6 -- -- 96
2020-01-20 01:00:00 10.1 18 Este 52 Nordeste 7.4 -- -- 94
2020-01-20 00:00:00 9.9 18 Este 55 Este 5.4 -- -- 93
2020-01-19 23:00:00 10 15 Este 57 Norte 1.2 -- -- 90
2020-01-19 22:00:00 9.7 19 Este 51 Este 1.8 -- -- 89
2020-01-19 21:00:00 9.7 17 Este 47 Este 1.4 -- -- 89
2020-01-19 20:00:00 9.7 20 Este 55 Este 2 -- -- 90
2020-01-19 19:00:00 9.9 18 Este 48 Nordeste 3.2 -- -- 91
2020-01-19 18:00:00 9.8 14 Este 53 Este 3.8 -- -- 89
2020-01-19 17:00:00 10.6 19 Este 60 Este 2.2 -- -- 90
2020-01-19 16:00:00 10.8 18 Este 48 Este 1.8 -- -- 90
2020-01-19 15:00:00 10.9 14 Este 39 Nordeste 3 -- -- 93
2020-01-19 14:00:00 10.8 11 Este 39 Este 2.2 -- -- 94
2020-01-19 13:00:00 10.7 11 Este 37 Este 4.2 -- -- 97
2020-01-19 12:00:00 11.3 10 Este 26 Este 14 -- -- 97
2020-01-19 11:00:00 11.9 5 Este 28 Este 0.8 -- -- 94
2020-01-19 10:00:00 12.2 6 Este 21 Sudeste 1.2 -- -- 96
2020-01-19 09:00:00 10.1 0 Calma 4 Nordeste 2 -- -- 98
2020-01-19 08:00:00 9.5 0 Calma 3 Oeste 0 -- -- 97
2020-01-19 07:00:00 9 0 Calma 3 Oeste 0 -- -- 96
2020-01-19 06:00:00 9 0 Calma 2 Nordeste 0 -- -- 95
2020-01-19 05:00:00 9 0 Calma 2 Sur 0 -- -- 94
2020-01-19 04:00:00 9.1 0 Calma 2 Noroeste 0 -- -- 93
2020-01-19 03:00:00 8.8 0 Calma 4 Nordeste 0 -- -- 91
2020-01-19 02:00:00 8.3 0 Calma 5 Nordeste 0 -- -- 91
2020-01-19 01:00:00 8 2 Norte 3 Nordeste 0 -- -- 90
2020-01-19 00:00:00 7.5 0 Calma 3 Noroeste 0 -- -- 90
2020-01-18 23:00:00 6.5 0 Calma 4 Nordeste 0 -- -- 93
2020-01-18 22:00:00 5.9 0 Calma 3 Norte 0 -- -- 93
2020-01-18 21:00:00 6.6 0 Calma 4 Nordeste 0 -- -- 92
2020-01-18 20:00:00 7.3 0 Calma 4 Noroeste 0 -- -- 90
2020-01-18 19:00:00 8.4 0 Calma 8 Norte 0 -- -- 85
2020-01-18 18:00:00 10.7 0 Calma 9 Nordeste 0 -- -- 74
2020-01-18 17:00:00 13.8 7 Norte 15 Norte 0 -- -- 62
2020-01-18 16:00:00 15.7 3 Este 8 Norte 0 -- -- 49
2020-01-18 15:00:00 17.1 2 Este 17 Sudoeste 0 -- -- 46
2020-01-18 14:00:00 15.2 5 Sudeste 15 Sudoeste 0 -- -- 49
2020-01-18 13:00:00 14.8 6 Sudoeste 17 Sudoeste 0 -- -- 56
2020-01-18 12:00:00 13.4 0 Calma 7 Este 0 -- -- 67
2020-01-18 11:00:00 11.4 0 Calma 5 Oeste 0 -- -- 79
2020-01-18 10:00:00 7.7 2 Nordeste 6 Sudeste 0 -- -- 97
2020-01-18 09:00:00 5.9 2 Noroeste 8 Sudeste 0 -- -- 98
2020-01-18 08:00:00 4.9 0 Calma 4 Noroeste 0 -- -- 99
2020-01-18 07:00:00 4.8 0 Calma 4 Oeste 0 -- -- 98
2020-01-18 06:00:00 5.4 0 Calma 4 Nordeste 0 -- -- 97
2020-01-18 05:00:00 6 0 Calma 6 Este 0 -- -- 97
2020-01-18 04:00:00 6.7 0 Calma 5 Nordeste 0 -- -- 95
2020-01-18 03:00:00 7.6 0 Calma 5 Sudoeste 0 -- -- 95
2020-01-18 02:00:00 7.6 0 Calma 5 Noroeste 0 -- -- 93
2020-01-18 01:00:00 8.8 0 Calma 7 Nordeste 0 -- -- 89
2020-01-18 00:00:00 10.8 2 Noroeste 12 Sudeste 0 -- -- 82
2020-01-17 23:00:00 13 3 Oeste 30 Oeste 0 -- -- 61
2020-01-17 22:00:00 15.2 10 Oeste 30 Oeste 0 -- -- 53
2020-01-17 21:00:00 15.5 10 Oeste 37 Oeste 0 -- -- 47
2020-01-17 20:00:00 15.7 17 Oeste 46 Oeste 0 -- -- 44
2020-01-17 19:00:00 14.8 11 Oeste 23 Oeste 0 -- -- 49
2020-01-17 18:00:00 14.6 5 Sudoeste 25 Oeste 0 -- -- 53
2020-01-17 17:00:00 16.1 8 Oeste 29 Oeste 0 -- -- 46
2020-01-17 16:00:00 16.9 14 Oeste 37 Oeste 0 -- -- 44
2020-01-17 15:00:00 18.1 13 Oeste 32 Oeste 0 -- -- 43
2020-01-17 14:00:00 18.9 14 Oeste 29 Oeste 0 -- -- 38
2020-01-17 13:00:00 19.2 5 Sur 19 Sudoeste 0 -- -- 52
2020-01-17 12:00:00 18 8 Sur 14 Sudoeste 0 -- -- 64
2020-01-17 11:00:00 15.4 4 Norte 9 Norte 0 -- -- 75
2020-01-17 10:00:00 11.6 5 Norte 12 Norte 0 -- -- 87
2020-01-17 09:00:00 6.4 4 Nordeste 7 Norte 0 -- -- 100
2020-01-17 08:00:00 4.3 2 Oeste 5 Oeste 0 -- -- 100
2020-01-17 07:00:00 4.1 0 Calma 3 Nordeste 0 -- -- 100
2020-01-17 06:00:00 4.4 0 Calma 3 Norte 0 -- -- 100
2020-01-17 05:00:00 4.5 0 Calma 4 Noroeste 0 -- -- 99
2020-01-17 04:00:00 4.4 0 Calma 4 Noroeste 0 -- -- 99
2020-01-17 03:00:00 4.9 0 Calma 3 Norte 0 -- -- 100
2020-01-17 02:00:00 5.5 0 Calma 3 Norte 0 -- -- 99
2020-01-17 01:00:00 6.2 0 Calma 3 Noroeste 0 -- -- 98
2020-01-17 00:00:00 6.3 0 Calma 5 Nordeste 0 -- -- 99
2020-01-16 23:00:00 6.6 0 Calma 5 Nordeste 0 -- -- 97
2020-01-16 22:00:00 7.6 3 Noroeste 5 Norte 0 -- -- 97
2020-01-16 21:00:00 7.6 0 Calma 3 Nordeste 0 -- -- 96
2020-01-16 20:00:00 8.3 0 Calma 2 Sudeste 0 -- -- 95
2020-01-16 19:00:00 9.3 0 Calma 3 Nordeste 0 -- -- 93
2020-01-16 18:00:00 11.2 0 Calma 5 Sudeste 0 -- -- 87
2020-01-16 17:00:00 14.4 3 Sudeste 11 Este 0 -- -- 75
2020-01-16 16:00:00 15.7 6 Este 15 Norte 0 -- -- 67
2020-01-16 15:00:00 17.3 8 Norte 13 Nordeste 0 -- -- 53
2020-01-16 14:00:00 18 4 Sudeste 9 Sudeste 0 -- -- 52
2020-01-16 13:00:00 17.2 2 Sur 8 Nordeste 0 -- -- 57
2020-01-16 12:00:00 15.2 0 Calma 4 Sur 0 -- -- 63
2020-01-16 11:00:00 12.8 2 Nordeste 4 Nordeste 0 -- -- 69
2020-01-16 10:00:00 9.5 0 Calma 3 Norte 0 -- -- 93
2020-01-16 09:00:00 4 0 Calma 3 Norte 0 -- -- 99
2020-01-16 08:00:00 3.2 0 Calma 3 Norte 0 -- -- 99
2020-01-16 07:00:00 3.8 0 Calma 2 Norte 0 -- -- 98
2020-01-16 06:00:00 4.4 0 Calma 2 Nordeste 0 -- -- 99
2020-01-16 05:00:00 4.5 0 Calma 3 Norte 0 -- -- 98
2020-01-16 04:00:00 4.4 0 Calma 4 Norte 0 -- -- 98
2020-01-16 03:00:00 4.7 0 Calma 2 Norte 0 -- -- 98
2020-01-16 02:00:00 4.6 0 Calma 3 Norte 0 -- -- 98
2020-01-16 01:00:00 5.2 0 Calma 3 Norte 0 -- -- 98
2020-01-16 00:00:00 5.4 0 Calma 2 Nordeste 0 -- -- 97
2020-01-15 23:00:00 6.1 0 Calma 3 Oeste 0 -- -- 96
2020-01-15 22:00:00 6.6 0 Calma 4 Sudeste 0 -- -- 96
2020-01-15 21:00:00 7.1 0 Calma 4 Nordeste 0 -- -- 94
2020-01-15 20:00:00 7.6 0 Calma 4 Noroeste 0 -- -- 93
2020-01-15 19:00:00 8.9 0 Calma 5 Noroeste 0 -- -- 85
2020-01-15 18:00:00 12 2 Sur 19 Sur 0 -- -- 68
2020-01-15 17:00:00 13.9 8 Sur 18 Sudoeste 0 -- -- 64
2020-01-15 16:00:00 14.9 5 Sudoeste 17 Sudoeste 0 -- -- 62
2020-01-15 15:00:00 15.6 5 Noroeste 20 Sudoeste 0 -- -- 62
2020-01-15 14:00:00 16.5 10 Sudoeste 22 Sudoeste 0 -- -- 55
2020-01-15 13:00:00 16.2 11 Sur 26 Sudoeste 0 -- -- 58
2020-01-15 12:00:00 15.8 11 Sudoeste 23 Oeste 0 -- -- 60
2020-01-15 11:00:00 14.8 7 Sudoeste 17 Oeste 0 -- -- 68
2020-01-15 10:00:00 11.6 0 Calma 3 Oeste 0 -- -- 91
2020-01-15 09:00:00 6.8 0 Calma 3 Oeste 0 -- -- 98
2020-01-15 08:00:00 5.2 0 Calma 3 Oeste 0 -- -- 97
2020-01-15 07:00:00 5.5 0 Calma 5 Oeste 0 -- -- 96
2020-01-15 06:00:00 6.8 0 Calma 7 Oeste 0 -- -- 94
2020-01-15 05:00:00 7.9 0 Calma 6 Sudeste 0 -- -- 89
2020-01-15 04:00:00 9.5 2 Sudoeste 6 Sur 0 -- -- 85
2020-01-15 03:00:00 9.1 2 Norte 9 Nordeste 0 -- -- 85
2020-01-15 02:00:00 9.1 3 Norte 16 Sudoeste 0 -- -- 82
2020-01-15 01:00:00 12.2 9 Sudoeste 26 Sudoeste 0 -- -- 70
2020-01-15 00:00:00 12.3 12 Sudoeste 37 Sudoeste 0 -- -- 69
2020-01-14 23:00:00 12.6 12 Sudoeste 35 Sudoeste 0 -- -- 67
2020-01-14 22:00:00 12.5 12 Sur 32 Sudoeste 0 -- -- 68
2020-01-14 21:00:00 12.2 8 Sudoeste 27 Sur 0 -- -- 72
2020-01-14 20:00:00 12.4 9 Sur 24 Sudoeste 0 -- -- 71
2020-01-14 19:00:00 12.4 11 Sur 23 Sudoeste 0 -- -- 68
2020-01-14 18:00:00 12.6 11 Sur 27 Sudoeste 0 -- -- 68
2020-01-14 17:00:00 13.5 14 Sudoeste 33 Sur 0 -- -- 67
2020-01-14 16:00:00 14.9 15 Sudoeste 33 Sur 0 -- -- 62
2020-01-14 15:00:00 16.5 16 Sudoeste 38 Sur 0 -- -- 56
2020-01-14 14:00:00 16.3 18 Sur 35 Sur 0 -- -- 57
2020-01-14 13:00:00 16.3 13 Sudoeste 36 Sur 0 -- -- 55
2020-01-14 12:00:00 15.2 17 Sudoeste 35 Sudoeste 0 -- -- 61
2020-01-14 11:00:00 14.5 10 Sudoeste 28 Oeste 0 -- -- 65
2020-01-14 10:00:00 9.6 0 Calma 6 Sudoeste 0 -- -- 89
2020-01-14 09:00:00 3.5 0 Calma 5 Noroeste 0 -- -- 98
2020-01-14 08:00:00 2.7 0 Calma 3 Este 0 -- -- 97
2020-01-14 07:00:00 2.7 0 Calma 3 Nordeste 0 -- -- 97
2020-01-14 06:00:00 2.9 0 Calma 4 Nordeste 0 -- -- 96
2020-01-14 05:00:00 3.7 0 Calma 10 Oeste 0 -- -- 95
2020-01-14 04:00:00 3.6 0 Calma 5 Oeste 0 -- -- 94
2020-01-14 03:00:00 4.1 3 Norte 6 Nordeste 0 -- -- 92
2020-01-14 02:00:00 5.2 2 Nordeste 7 Este 0 -- -- 93
2020-01-14 01:00:00 5.4 2 Oeste 6 Nordeste 0 -- -- 95
2020-01-14 00:00:00 5 0 Calma 5 Norte 0 -- -- 95
2020-01-13 23:00:00 5.5 2 Norte 5 Norte 0 -- -- 95
2020-01-13 22:00:00 6.1 0 Calma 7 Nordeste 0 -- -- 94
2020-01-13 21:00:00 7.1 0 Calma 6 Norte 0 -- -- 93
2020-01-13 20:00:00 7.8 3 Nordeste 5 Norte 0 -- -- 90
2020-01-13 19:00:00 9.6 3 Nordeste 14 Sur 0 -- -- 82
2020-01-13 18:00:00 11.8 9 Sur 21 Sudoeste 0 -- -- 74
2020-01-13 17:00:00 13.2 11 Sur 19 Sudoeste 0 -- -- 68
2020-01-13 16:00:00 14.7 10 Nordeste 16 Este 0 -- -- 61
2020-01-13 15:00:00 15.3 9 Nordeste 14 Nordeste 0 -- -- 55
2020-01-13 14:00:00 15.5 4 Nordeste 11 Norte 0 -- -- 53
2020-01-13 13:00:00 14.4 4 Nordeste 10 Este 0 -- -- 56
2020-01-13 12:00:00 13.8 3 Sur 8 Sudeste 0 -- -- 59
2020-01-13 11:00:00 11.7 2 Sur 5 Nordeste 0 -- -- 69
2020-01-13 10:00:00 7.9 0 Calma 4 Norte 0 -- -- 96
2020-01-13 09:00:00 2.7 0 Calma 3 Nordeste 0 -- -- 99
2020-01-13 08:00:00 1.3 0 Calma 3 Norte 0 -- -- 99
2020-01-13 07:00:00 1.2 0 Calma 2 Norte 0 -- -- 99
2020-01-13 06:00:00 1.7 0 Calma 4 Sur 0 -- -- 99
2020-01-13 05:00:00 1.9 0 Calma 2 Nordeste 0 -- -- 99
2020-01-13 04:00:00 2.4 0 Calma 3 Norte 0 -- -- 99
2020-01-13 03:00:00 2.4 0 Calma 2 Norte 0 -- -- 97
2020-01-13 02:00:00 3.1 0 Calma 2 Nordeste 0 -- -- 97
2020-01-13 01:00:00 3.5 0 Calma 4 Norte 0 -- -- 97
2020-01-13 00:00:00 3.9 0 Calma 3 Norte 0 -- -- 96
2020-01-12 23:00:00 4.8 0 Calma 6 Sudoeste 0 -- -- 95
2020-01-12 22:00:00 5.3 0 Calma 4 Oeste 0 -- -- 96
2020-01-12 21:00:00 5.6 3 Oeste 9 Sudoeste 0 -- -- 93
2020-01-12 20:00:00 6.2 0 Calma 5 Oeste 0 -- -- 93
2020-01-12 19:00:00 7 2 Oeste 5 Oeste 0 -- -- 91
2020-01-12 18:00:00 8.6 0 Calma 7 Noroeste 0 -- -- 84
2020-01-12 17:00:00 12 3 Noroeste 15 Norte 0 -- -- 68
2020-01-12 16:00:00 13 6 Noroeste 18 Noroeste 0 -- -- 62
2020-01-12 15:00:00 14.3 7 Norte 19 Noroeste 0 -- -- 58
2020-01-12 14:00:00 14.4 8 Noroeste 20 Noroeste 0 -- -- 58
2020-01-12 13:00:00 14.2 8 Noroeste 23 Noroeste 0 -- -- 57
2020-01-12 12:00:00 13.6 10 Noroeste 22 Oeste 0 -- -- 57
2020-01-12 11:00:00 13.5 8 Noroeste 20 Norte 0 -- -- 59
2020-01-12 10:00:00 12.7 5 Noroeste 11 Oeste 0 -- -- 62
2020-01-12 09:00:00 8.2 0 Calma 6 Norte 0 -- -- 85
2020-01-12 08:00:00 7.2 3 Oeste 8 Oeste 0 -- -- 86
2020-01-12 07:00:00 7.4 0 Calma 9 Noroeste 0 -- -- 81
2020-01-12 06:00:00 9.8 3 Noroeste 11 Norte 0 -- -- 73
2020-01-12 05:00:00 10.4 3 Noroeste 10 Noroeste 0 -- -- 68
2020-01-12 04:00:00 11.3 3 Norte 14 Nordeste 0 -- -- 65
2020-01-12 03:00:00 10.6 3 Oeste 12 Norte 0 -- -- 71
2020-01-12 02:00:00 9.2 3 Oeste 11 Norte 0 -- -- 76
2020-01-12 01:00:00 10.7 5 Norte 17 Norte 0 -- -- 68
2020-01-12 00:00:00 10.6 6 Norte 15 Norte 0 -- -- 71
2020-01-11 23:00:00 9.8 0 Calma 12 Norte 0 -- -- 75
2020-01-11 22:00:00 11 5 Norte 16 Norte 0 -- -- 69
2020-01-11 21:00:00 11.1 5 Norte 23 Norte 0 -- -- 67
2020-01-11 20:00:00 11.4 11 Norte 22 Norte 0 -- -- 66
2020-01-11 19:00:00 11.4 6 Norte 23 Norte 0 -- -- 68
2020-01-11 18:00:00 11.3 9 Norte 22 Nordeste 0 -- -- 68
2020-01-11 17:00:00 11.6 8 Norte 23 Nordeste 0 -- -- 63
2020-01-11 16:00:00 12 12 Nordeste 30 Nordeste 0 -- -- 65
2020-01-11 15:00:00 12.2 13 Nordeste 34 Nordeste 0 -- -- 64
2020-01-11 14:00:00 12.2 13 Norte 36 Norte 0 -- -- 64
2020-01-11 13:00:00 13 7 Norte 34 Norte 0 -- -- 60
2020-01-11 12:00:00 12.5 9 Nordeste 38 Este 0 -- -- 60
2020-01-11 11:00:00 13.4 11 Nordeste 28 Norte 0 -- -- 59
2020-01-11 10:00:00 12.3 4 Norte 20 Norte 0 -- -- 66
2020-01-11 09:00:00 11.7 6 Nordeste 21 Este 0 -- -- 67
2020-01-11 08:00:00 11.7 9 Nordeste 33 Nordeste 0 -- -- 69
2020-01-11 07:00:00 12 8 Nordeste 27 Norte 0 -- -- 72
2020-01-11 06:00:00 12 6 Este 22 Norte 0 -- -- 70
2020-01-11 05:00:00 12.3 7 Este 25 Este 0 -- -- 71
2020-01-11 04:00:00 12.3 8 Este 31 Nordeste 0 -- -- 70
2020-01-11 03:00:00 12.6 10 Nordeste 26 Nordeste 0 -- -- 69
2020-01-11 02:00:00 12.6 8 Norte 29 Norte 0 -- -- 69
2020-01-11 01:00:00 12.7 8 Nordeste 29 Este 0 -- -- 68
2020-01-11 00:00:00 12.8 10 Nordeste 30 Norte 0 -- -- 65
2020-01-10 23:00:00 12.9 6 Norte 28 Este 0 -- -- 68
2020-01-10 22:00:00 13 9 Nordeste 26 Nordeste 0 -- -- 71
2020-01-10 21:00:00 13.1 9 Este 32 Este 0 -- -- 71
2020-01-10 20:00:00 13.1 10 Este 46 Este 0 -- -- 70
2020-01-10 19:00:00 13 8 Este 31 Este 0 -- -- 71
2020-01-10 18:00:00 13 11 Este 27 Nordeste 0 -- -- 72
2020-01-10 17:00:00 12.7 11 Este 31 Este 0 -- -- 74
2020-01-10 16:00:00 11.9 10 Este 39 Este 0.8 -- -- 84
2020-01-10 15:00:00 12.5 9 Este 25 Este 0.6 -- -- 81
2020-01-10 14:00:00 13.2 12 Este 30 Este 0 -- -- 74
2020-01-10 13:00:00 12.8 11 Este 27 Este 0 -- -- 78
2020-01-10 12:00:00 13.3 9 Este 21 Este 0 -- -- 80
2020-01-10 11:00:00 14.5 4 Nordeste 12 Norte 0 -- -- 74
2020-01-10 10:00:00 9.7 3 Norte 6 Norte 0 -- -- 99
2020-01-10 09:00:00 7.5 2 Norte 4 Norte 0 -- -- 99
2020-01-10 08:00:00 5.8 0 Calma 4 Norte 0 -- -- 100
2020-01-10 07:00:00 5.1 2 Norte 5 Noroeste 0 -- -- 98
2020-01-10 06:00:00 4.8 0 Calma 7 Sudeste 0 -- -- 99
2020-01-10 05:00:00 5.8 0 Calma 3 Norte 0 -- -- 98
2020-01-10 04:00:00 6.6 2 Norte 5 Sudoeste 0 -- -- 99
2020-01-10 03:00:00 6.5 2 Noroeste 6 Sudoeste 0 -- -- 98
2020-01-10 02:00:00 6.9 0 Calma 5 Noroeste 0 -- -- 96
2020-01-10 01:00:00 8 3 Nordeste 9 Este 0 -- -- 96
2020-01-10 00:00:00 7.2 0 Calma 6 Sur 0 -- -- 95
2020-01-09 23:00:00 7.6 0 Calma 4 Norte 0 -- -- 94
2020-01-09 22:00:00 7.9 0 Calma 3 Nordeste 0 -- -- 93
2020-01-09 21:00:00 9.9 0 Calma 3 Norte 0 -- -- 88
2020-01-09 20:00:00 11.3 0 Calma 3 Sur 0 -- -- 83
2020-01-09 19:00:00 12.6 2 Sudoeste 9 Sudoeste 0 -- -- 74
2020-01-09 18:00:00 12.8 3 Sudoeste 10 Oeste 0 -- -- 73
2020-01-09 17:00:00 13.9 3 Oeste 8 Noroeste 0 -- -- 69
2020-01-09 16:00:00 14.6 2 Noroeste 9 Nordeste 0 -- -- 63
2020-01-09 15:00:00 15.2 4 Este 14 Nordeste 0 -- -- 71
2020-01-09 14:00:00 15.8 4 Este 11 Sudeste 0 -- -- 67
2020-01-09 13:00:00 15.7 4 Sudeste 11 Sudeste 0 -- -- 67
2020-01-09 12:00:00 14.8 4 Sudeste 11 Sur 0 -- -- 74
2020-01-09 11:00:00 14.3 2 Sudoeste 4 Oeste 0 -- -- 75
2020-01-09 10:00:00 10.7 0 Calma 3 Norte 0 -- -- 97
2020-01-09 09:00:00 6.5 2 Norte 4 Norte 0 -- -- 100
2020-01-09 08:00:00 5.9 2 Norte 5 Noroeste 0 -- -- 100
2020-01-09 07:00:00 5.9 2 Norte 4 Norte 0 -- -- 99
2020-01-09 06:00:00 5.9 2 Norte 3 Norte 0 -- -- 99
2020-01-09 05:00:00 6 2 Norte 4 Oeste 0 -- -- 99
2020-01-09 04:00:00 6.3 2 Norte 3 Norte 0 -- -- 98
2020-01-09 03:00:00 6.7 0 Calma 4 Noroeste 0 -- -- 98
2020-01-09 02:00:00 6.7 2 Norte 5 Norte 0 -- -- 98
2020-01-09 01:00:00 6.8 2 Noroeste 4 Oeste 0 -- -- 97
2020-01-09 00:00:00 7.4 0 Calma 4 Norte 0 -- -- 97
2020-01-08 23:00:00 7.7 2 Norte 5 Noroeste 0 -- -- 96
2020-01-08 22:00:00 7.8 2 Norte 6 Oeste 0 -- -- 96
2020-01-08 21:00:00 8.1 2 Norte 4 Norte 0 -- -- 96
2020-01-08 20:00:00 8.8 0 Calma 4 Sudoeste 0 -- -- 93
2020-01-08 19:00:00 10.1 2 Oeste 8 Nordeste 0 -- -- 90
2020-01-08 18:00:00 12.1 4 Nordeste 10 Nordeste 0 -- -- 82
2020-01-08 17:00:00 13.8 4 Este 12 Norte 0 -- -- 78
2020-01-08 16:00:00 14 4 Norte 14 Este 0 -- -- 73
2020-01-08 15:00:00 14.9 8 Nordeste 22 Norte 0 -- -- 74
2020-01-08 14:00:00 15 8 Norte 19 Norte 0 -- -- 73
2020-01-08 13:00:00 14.7 7 Norte 17 Norte 0 -- -- 73
2020-01-08 12:00:00 14.3 12 Norte 23 Norte 0 -- -- 74
2020-01-08 11:00:00 14.3 8 Nordeste 27 Norte 0 -- -- 71
2020-01-08 10:00:00 14.2 7 Norte 18 Norte 0 -- -- 72
2020-01-08 09:00:00 10.9 4 Oeste 10 Oeste 0 -- -- 85
2020-01-08 08:00:00 10.6 3 Oeste 21 Noroeste 0 -- -- 85
2020-01-08 07:00:00 11.6 6 Noroeste 24 Oeste 0 -- -- 82
2020-01-08 06:00:00 9.7 6 Oeste 16 Oeste 0 -- -- 89
2020-01-08 05:00:00 10.7 6 Oeste 17 Oeste 0 -- -- 68
2020-01-08 04:00:00 8.2 6 Oeste 11 Oeste 0 -- -- 74
2020-01-08 03:00:00 8.1 0 Calma 10 Sudeste 0 -- -- 78
2020-01-08 02:00:00 9.5 3 Sudeste 13 Oeste 0 -- -- 66
2020-01-08 01:00:00 8.5 3 Oeste 10 Sudoeste 0 -- -- 72
2020-01-08 00:00:00 8 5 Oeste 12 Sudoeste 0 -- -- 80
2020-01-07 23:00:00 10.5 4 Oeste 14 Oeste 0 -- -- 64
2020-01-07 22:00:00 7.3 0 Calma 5 Sur 0 -- -- 88
2020-01-07 21:00:00 6.9 0 Calma 5 Nordeste 0 -- -- 91
2020-01-07 20:00:00 7.9 0 Calma 10 Sudoeste 0 -- -- 89
2020-01-07 19:00:00 10.9 6 Sudoeste 13 Sudoeste 0 -- -- 79
2020-01-07 18:00:00 11.8 6 Oeste 18 Oeste 0 -- -- 80
2020-01-07 17:00:00 13.3 10 Oeste 20 Oeste 0 -- -- 74
2020-01-07 16:00:00 14.5 8 Oeste 22 Oeste 0 -- -- 74
2020-01-07 15:00:00 15.1 7 Oeste 16 Noroeste 0 -- -- 70
2020-01-07 14:00:00 14.7 8 Noroeste 17 Norte 0 -- -- 72
2020-01-07 13:00:00 15.1 8 Norte 18 Noroeste 0 -- -- 72
2020-01-07 12:00:00 15.6 8 Noroeste 19 Oeste 0 -- -- 71
2020-01-07 11:00:00 15.1 6 Noroeste 13 Oeste 0 -- -- 72
2020-01-07 10:00:00 13.1 2 Noroeste 5 Sudoeste 0 -- -- 86
2020-01-07 09:00:00 9 0 Calma 5 Sudoeste 0 -- -- 96
2020-01-07 08:00:00 8.9 0 Calma 5 Noroeste 0 -- -- 95
2020-01-07 07:00:00 8.4 0 Calma 5 Oeste 0 -- -- 95
2020-01-07 06:00:00 8.5 0 Calma 8 Oeste 0 -- -- 94
2020-01-07 05:00:00 11.3 3 Sudoeste 10 Oeste 0 -- -- 84
2020-01-07 04:00:00 11.9 3 Oeste 8 Noroeste 0 -- -- 82
2020-01-07 03:00:00 12.5 3 Noroeste 8 Noroeste 0 -- -- 81
2020-01-07 02:00:00 12.4 0 Calma 9 Norte 0 -- -- 82
2020-01-07 01:00:00 11.9 0 Calma 8 Nordeste 0 -- -- 87
2020-01-07 00:00:00 10.2 0 Calma 5 Norte 0 -- -- 92
2020-01-06 23:00:00 9.8 0 Calma 3 Oeste 0 -- -- 91
2020-01-06 22:00:00 12.1 0 Calma 9 Oeste 0 -- -- 81
2020-01-06 21:00:00 13.2 2 Norte 10 Noroeste 0 -- -- 75
2020-01-06 20:00:00 12.8 2 Oeste 8 Norte 0 -- -- 78
2020-01-06 19:00:00 12.3 0 Calma 6 Noroeste 0 -- -- 84
2020-01-06 18:00:00 12.6 0 Calma 9 Oeste 0 -- -- 82
2020-01-06 17:00:00 13.2 2 Noroeste 8 Noroeste 0 -- -- 79
2020-01-06 16:00:00 13.6 3 Norte 11 Noroeste 0 -- -- 76
2020-01-06 15:00:00 13.8 0 Calma 9 Oeste 0 -- -- 74
2020-01-06 14:00:00 13.5 4 Oeste 8 Oeste 0 -- -- 75
2020-01-06 13:00:00 13.6 0 Calma 9 Oeste 0 -- -- 77
2020-01-06 12:00:00 13.2 3 Oeste 10 Sudoeste 0 -- -- 76
2020-01-06 11:00:00 12.8 3 Sudoeste 10 Oeste 0 -- -- 78
2020-01-06 10:00:00 12.6 5 Oeste 10 Oeste 0 -- -- 78